createdAt,value
2023-01-30T00:00:52.472Z,3.43
2023-01-30T00:03:18.932Z,3.46
2023-01-30T00:05:45.277Z,3.47
2023-01-30T00:08:11.597Z,3.43
2023-01-30T00:10:37.900Z,3.48
2023-01-30T00:13:04.211Z,3.51
2023-01-30T00:15:30.502Z,3.53
2023-01-30T00:17:56.864Z,3.56
2023-01-30T00:20:23.237Z,3.54
2023-01-30T00:23:00.449Z,3.62
2023-01-30T00:25:28.012Z,3.57
2023-01-30T00:27:54.415Z,3.57
2023-01-30T00:30:20.806Z,3.53
2023-01-30T00:32:47.224Z,3.54
2023-01-30T00:35:13.543Z,3.65
2023-01-30T00:37:39.858Z,3.65
2023-01-30T00:40:06.453Z,3.69
2023-01-30T00:42:51.431Z,3.68
2023-01-30T00:45:36.269Z,3.64
2023-01-30T00:48:02.619Z,3.66
2023-01-30T00:50:42.512Z,3.66
2023-01-30T00:53:09.911Z,3.64
2023-01-30T00:55:36.214Z,3.67
2023-01-30T00:58:02.515Z,3.68
2023-01-30T01:00:29.116Z,3.70
2023-01-30T01:02:55.425Z,3.70
2023-01-30T01:05:21.789Z,3.73
2023-01-30T01:07:48.095Z,3.71
2023-01-30T01:10:16.408Z,3.74
2023-01-30T01:12:44.573Z,3.66
2023-01-30T01:15:12.246Z,3.68
2023-01-30T01:17:39.225Z,3.74
2023-01-30T01:20:05.796Z,3.76
2023-01-30T01:22:32.104Z,3.79
2023-01-30T01:24:58.430Z,3.82
2023-01-30T01:27:24.920Z,3.84
2023-01-30T01:29:51.206Z,3.86
2023-01-30T01:32:17.521Z,3.88
2023-01-30T01:34:43.858Z,3.92
2023-01-30T01:37:10.202Z,3.92
2023-01-30T01:39:55.088Z,3.90
2023-01-30T01:42:22.281Z,3.94
2023-01-30T01:45:00.491Z,3.98
2023-01-30T01:47:27.104Z,3.99
2023-01-30T01:49:53.454Z,4.03
2023-01-30T01:52:19.769Z,4.03
2023-01-30T01:54:51.879Z,4.04
2023-01-30T01:57:20.819Z,4.06
2023-01-30T01:59:52.911Z,4.08
2023-01-30T02:02:20.049Z,4.11
2023-01-30T02:05:06.491Z,4.16
2023-01-30T02:07:35.384Z,4.22
2023-01-30T02:10:02.199Z,4.30
2023-01-30T02:12:28.483Z,4.33
2023-01-30T02:14:56.241Z,4.33
2023-01-30T02:17:23.168Z,4.37
2023-01-30T02:20:08.039Z,4.42
2023-01-30T02:22:34.322Z,4.45
2023-01-30T02:25:12.896Z,4.48
2023-01-30T02:27:48.374Z,4.19
2023-01-30T02:30:17.660Z,4.18
2023-01-30T02:32:43.950Z,4.20
2023-01-30T02:35:19.766Z,4.23
2023-01-30T02:38:04.227Z,4.26
2023-01-30T02:40:38.897Z,4.36
2023-01-30T02:43:14.465Z,4.41
2023-01-30T02:45:46.898Z,4.45
2023-01-30T02:48:17.025Z,4.49
2023-01-30T02:50:46.212Z,4.53
2023-01-30T02:53:12.637Z,4.54
2023-01-30T02:55:40.599Z,4.58
2023-01-30T02:58:07.229Z,4.58
2023-01-30T03:00:55.043Z,4.55
2023-01-30T03:03:31.349Z,4.49
2023-01-30T03:06:09.964Z,4.46
2023-01-30T03:08:56.953Z,4.36
2023-01-30T03:11:26.733Z,4.25
2023-01-30T03:13:58.893Z,4.14
2023-01-30T03:16:31.733Z,4.02
2023-01-30T03:19:00.099Z,3.93
2023-01-30T03:21:26.511Z,3.88
2023-01-30T03:23:52.810Z,3.86
2023-01-30T03:26:21.952Z,3.71
2023-01-30T03:28:49.619Z,3.74
2023-01-30T03:31:16.056Z,3.72
2023-01-30T03:33:42.624Z,3.74
2023-01-30T03:36:09.405Z,3.67
2023-01-30T03:38:35.993Z,3.67
2023-01-30T03:41:03.208Z,3.63
2023-01-30T03:43:29.520Z,3.60
2023-01-30T03:45:55.811Z,3.61
2023-01-30T03:48:22.106Z,3.61
2023-01-30T03:50:49.297Z,3.60
2023-01-30T03:53:15.619Z,3.59
2023-01-30T03:55:41.904Z,3.55
2023-01-30T03:58:08.227Z,3.57
2023-01-30T04:00:34.597Z,3.53
2023-01-30T04:03:00.921Z,3.50
2023-01-30T04:05:27.288Z,3.50
2023-01-30T04:07:56.102Z,3.51
2023-01-30T04:10:22.397Z,3.55
2023-01-30T04:12:48.922Z,3.55
2023-01-30T04:15:15.449Z,3.54
2023-01-30T04:17:42.988Z,3.46
2023-01-30T04:20:09.743Z,3.44
2023-01-30T04:22:36.281Z,3.42
2023-01-30T04:25:03.513Z,3.44
2023-01-30T04:27:29.831Z,3.45
2023-01-30T04:29:56.141Z,3.43
2023-01-30T04:32:22.437Z,3.43
2023-01-30T04:34:48.751Z,3.33
2023-01-30T04:37:15.039Z,3.35
2023-01-30T04:39:41.383Z,3.31
2023-01-30T04:42:07.683Z,3.29
2023-01-30T04:44:33.994Z,3.25
2023-01-30T04:47:00.290Z,3.24
2023-01-30T04:49:26.782Z,3.18
2023-01-30T04:51:53.058Z,3.16
2023-01-30T04:54:19.362Z,2.78
2023-01-30T04:56:45.644Z,2.80
2023-01-30T04:59:11.958Z,2.77
2023-01-30T05:01:38.847Z,2.71
2023-01-30T05:04:05.784Z,2.75
2023-01-30T05:06:32.630Z,2.77
2023-01-30T05:08:59.475Z,2.78
2023-01-30T05:11:26.623Z,2.78
2023-01-30T05:13:53.463Z,2.77
2023-01-30T05:16:21.175Z,2.77
2023-01-30T05:18:47.585Z,2.79
2023-01-30T05:21:18.921Z,2.76
2023-01-30T05:23:45.288Z,2.76
2023-01-30T05:26:12.372Z,2.77
2023-01-30T05:28:38.713Z,2.76
2023-01-30T05:31:06.406Z,2.73
2023-01-30T05:33:32.830Z,2.82
2023-01-30T05:35:59.483Z,2.71
2023-01-30T05:38:26.464Z,2.73
2023-01-30T05:41:03.048Z,2.75
2023-01-30T05:43:29.762Z,2.75
2023-01-30T05:45:57.001Z,2.75
2023-01-30T05:48:23.615Z,2.64
2023-01-30T05:50:53.613Z,2.61
2023-01-30T05:53:20.800Z,2.61
2023-01-30T05:55:47.124Z,2.55
2023-01-30T05:58:13.447Z,2.55
2023-01-30T06:00:39.758Z,2.53
2023-01-30T06:03:06.089Z,2.58
2023-01-30T06:05:32.433Z,2.62
2023-01-30T06:07:58.743Z,2.65
2023-01-30T06:10:25.052Z,2.79
2023-01-30T06:12:51.353Z,2.66
2023-01-30T06:15:17.944Z,2.59
2023-01-30T06:17:44.473Z,2.60
2023-01-30T06:20:11.160Z,2.61
2023-01-30T06:22:37.660Z,2.58
2023-01-30T06:25:04.443Z,2.69
2023-01-30T06:27:30.811Z,2.59
2023-01-30T06:29:57.125Z,2.56
2023-01-30T06:32:23.485Z,2.62
2023-01-30T06:34:49.777Z,2.61
2023-01-30T06:37:16.071Z,2.62
2023-01-30T06:39:42.513Z,2.66
2023-01-30T06:42:08.810Z,2.68
2023-01-30T06:44:35.339Z,2.72
2023-01-30T06:47:01.622Z,2.72
2023-01-30T06:49:27.961Z,2.79
2023-01-30T06:51:54.270Z,2.81
2023-01-30T06:54:20.590Z,2.80
2023-01-30T06:56:46.872Z,2.76
2023-01-30T06:59:13.160Z,2.79
2023-01-30T07:01:39.810Z,2.88
2023-01-30T07:04:06.169Z,2.98
2023-01-30T07:06:32.628Z,3.17
2023-01-30T07:08:59.023Z,3.19
2023-01-30T07:11:25.718Z,3.12
2023-01-30T07:13:52.120Z,3.07
2023-01-30T07:16:18.548Z,3.10
2023-01-30T07:18:44.861Z,3.22
2023-01-30T07:21:11.191Z,3.03
2023-01-30T07:23:37.577Z,2.99
2023-01-30T07:26:04.828Z,2.94
2023-01-30T07:28:31.213Z,2.94
2023-01-30T07:31:00.698Z,2.96
2023-01-30T07:33:27.213Z,2.97
2023-01-30T07:35:53.732Z,3.07
2023-01-30T07:38:20.063Z,3.14
2023-01-30T07:40:46.481Z,3.17
2023-01-30T07:43:13.604Z,3.17
2023-01-30T07:45:41.315Z,3.17
2023-01-30T07:48:08.416Z,3.19
2023-01-30T07:50:34.806Z,3.25
2023-01-30T07:53:04.737Z,3.33
2023-01-30T07:55:31.280Z,3.41
2023-01-30T07:57:57.634Z,3.58
2023-01-30T08:00:24.040Z,3.61
2023-01-30T08:02:50.390Z,3.58
2023-01-30T08:05:16.801Z,3.72
2023-01-30T08:07:43.124Z,3.99
2023-01-30T08:10:12.001Z,3.77
2023-01-30T08:12:39.591Z,3.87
2023-01-30T08:15:06.389Z,3.88
2023-01-30T08:17:32.773Z,3.81
2023-01-30T08:19:59.074Z,3.74
2023-01-30T08:22:25.521Z,3.70
2023-01-30T08:24:51.841Z,3.69
2023-01-30T08:27:18.142Z,3.72
2023-01-30T08:29:44.593Z,3.56
2023-01-30T08:32:11.078Z,3.46
2023-01-30T08:34:37.450Z,3.41
2023-01-30T08:37:03.794Z,3.40
2023-01-30T08:39:30.201Z,3.36
2023-01-30T08:41:56.567Z,3.36
2023-01-30T08:44:22.939Z,3.33
2023-01-30T08:46:49.281Z,3.27
2023-01-30T08:49:15.670Z,3.18
2023-01-30T08:52:00.002Z,2.83
2023-01-30T08:54:26.414Z,2.49
2023-01-30T08:56:52.893Z,2.45
2023-01-30T08:59:19.187Z,2.50
2023-01-30T09:01:45.496Z,2.64
2023-01-30T09:04:11.848Z,2.55
2023-01-30T09:06:38.166Z,2.39
2023-01-30T09:09:13.628Z,2.18
2023-01-30T09:11:39.968Z,2.11
2023-01-30T09:14:06.349Z,2.11
2023-01-30T09:16:32.718Z,2.22
2023-01-30T09:18:59.070Z,2.30
2023-01-30T09:21:25.354Z,2.40
2023-01-30T09:23:51.639Z,2.50
2023-01-30T09:26:17.946Z,2.53
2023-01-30T09:28:44.354Z,2.58
2023-01-30T09:31:10.880Z,2.63
2023-01-30T09:33:37.441Z,2.74
2023-01-30T09:36:03.830Z,2.84
2023-01-30T09:38:30.147Z,3.04
2023-01-30T09:40:59.439Z,3.04
2023-01-30T09:43:44.730Z,3.11
2023-01-30T09:46:14.970Z,3.22
2023-01-30T09:49:05.482Z,3.29
2023-01-30T09:51:31.870Z,3.38
2023-01-30T09:54:02.120Z,3.44
2023-01-30T09:56:37.393Z,3.46
2023-01-30T09:59:04.776Z,3.48
2023-01-30T10:01:37.505Z,3.56
2023-01-30T10:04:03.881Z,3.70
2023-01-30T10:06:31.930Z,3.97
2023-01-30T10:09:01.301Z,4.12
2023-01-30T10:11:27.695Z,4.06
2023-01-30T10:14:12.834Z,3.94
2023-01-30T10:16:58.777Z,3.78
2023-01-30T10:19:37.351Z,3.65
2023-01-30T10:22:12.911Z,3.42
2023-01-30T10:24:46.426Z,3.22
2023-01-30T10:27:15.460Z,3.15
2023-01-30T10:29:44.506Z,3.30
2023-01-30T10:32:16.621Z,3.33
2023-01-30T10:34:51.172Z,3.23
2023-01-30T10:37:18.006Z,3.25
2023-01-30T10:39:55.204Z,3.18
2023-01-30T10:42:42.272Z,3.21
2023-01-30T10:45:36.609Z,3.26
2023-01-30T10:48:03.007Z,3.41
2023-01-30T10:50:39.745Z,3.22
2023-01-30T10:53:15.383Z,3.32
2023-01-30T10:55:46.102Z,3.43
2023-01-30T10:58:23.529Z,3.50
2023-01-30T11:00:56.349Z,3.72
2023-01-30T11:03:28.290Z,3.52
2023-01-30T11:05:59.601Z,3.57
2023-01-30T11:08:31.271Z,3.55
2023-01-30T11:10:58.328Z,3.54
2023-01-30T11:13:32.092Z,3.54
2023-01-30T11:15:59.890Z,3.59
2023-01-30T11:19:18.190Z,3.64
2023-01-30T11:21:34.912Z,3.68
2023-01-30T11:24:19.969Z,3.53
2023-01-30T11:26:48.487Z,3.32
2023-01-30T11:29:21.122Z,3.55
2023-01-30T11:31:49.967Z,3.55
2023-01-30T11:34:17.746Z,3.41
2023-01-30T11:36:47.093Z,3.34
2023-01-30T11:39:13.424Z,3.31
2023-01-30T11:41:44.202Z,3.34
2023-01-30T11:44:11.344Z,3.33
2023-01-30T11:46:40.630Z,3.45
2023-01-30T11:49:46.960Z,3.56
2023-01-30T11:52:01.758Z,3.66
2023-01-30T11:54:39.534Z,4.01
2023-01-30T11:57:10.748Z,4.34
2023-01-30T11:59:43.585Z,4.54
2023-01-30T12:02:29.296Z,4.50
2023-01-30T12:04:59.495Z,4.22
2023-01-30T12:07:27.111Z,3.98
2023-01-30T12:09:54.284Z,3.85
2023-01-30T12:12:23.588Z,3.85
2023-01-30T12:14:52.384Z,3.79
2023-01-30T12:17:22.208Z,3.79
2023-01-30T12:19:55.745Z,3.69
2023-01-30T12:22:33.606Z,3.59
2023-01-30T12:25:13.874Z,3.67
2023-01-30T12:28:06.382Z,3.83
2023-01-30T12:30:35.910Z,4.11
2023-01-30T12:33:04.108Z,4.26
2023-01-30T12:35:50.710Z,4.27
2023-01-30T12:38:17.025Z,4.11
2023-01-30T12:40:55.460Z,4.09
2023-01-30T12:43:40.222Z,4.11
2023-01-30T12:46:27.811Z,4.18
2023-01-30T12:49:12.969Z,4.24
2023-01-30T12:51:42.304Z,4.07
2023-01-30T12:54:19.685Z,3.92
2023-01-30T12:56:54.482Z,3.92
2023-01-30T12:59:29.736Z,3.99
2023-01-30T13:01:56.080Z,4.23
2023-01-30T13:04:22.382Z,4.18
2023-01-30T13:07:02.002Z,4.11
2023-01-30T13:09:38.115Z,4.14
2023-01-30T13:12:12.203Z,4.24
2023-01-30T13:14:41.924Z,4.21
2023-01-30T13:17:17.142Z,4.18
2023-01-30T13:19:49.696Z,4.18
2023-01-30T13:22:20.307Z,4.15
2023-01-30T13:25:25.257Z,4.07
2023-01-30T13:27:57.277Z,3.89
2023-01-30T13:30:25.455Z,4.14
2023-01-30T13:32:52.954Z,4.81
2023-01-30T13:35:42.536Z,5.15
2023-01-30T13:38:12.762Z,5.21
2023-01-30T13:40:43.105Z,4.88
2023-01-30T13:43:16.134Z,4.64
2023-01-30T13:45:45.284Z,4.38
2023-01-30T13:48:24.445Z,4.21
2023-01-30T13:51:05.827Z,4.15
2023-01-30T13:53:42.386Z,4.14
2023-01-30T13:56:40.880Z,4.20
2023-01-30T13:59:17.344Z,4.29
2023-01-30T14:01:59.011Z,4.25
2023-01-30T14:04:40.602Z,4.15
2023-01-30T14:07:16.199Z,4.16
2023-01-30T14:09:44.486Z,4.16
2023-01-30T14:12:24.936Z,4.21
2023-01-30T14:15:09.887Z,4.27
2023-01-30T14:17:36.279Z,4.28
2023-01-30T14:20:15.314Z,4.23
2023-01-30T14:22:50.573Z,4.16
2023-01-30T14:25:22.724Z,4.11
2023-01-30T14:27:53.267Z,4.08
2023-01-30T14:30:31.874Z,4.05
2023-01-30T14:33:00.143Z,4.31
2023-01-30T14:35:27.813Z,4.21
2023-01-30T14:38:04.918Z,4.21
2023-01-30T14:40:33.008Z,4.26
2023-01-30T14:43:14.732Z,4.22
2023-01-30T14:45:49.277Z,4.02
2023-01-30T14:48:26.293Z,3.96
2023-01-30T14:51:11.565Z,4.02
2023-01-30T14:53:48.700Z,4.04
2023-01-30T14:56:15.293Z,4.05
2023-01-30T14:58:51.092Z,4.16
2023-01-30T15:01:17.534Z,4.05
2023-01-30T15:03:47.848Z,4.24
2023-01-30T15:06:14.244Z,4.19
2023-01-30T15:08:42.524Z,3.96
2023-01-30T15:11:17.486Z,3.69
2023-01-30T15:14:03.535Z,3.61
2023-01-30T15:16:41.405Z,3.58
2023-01-30T15:19:13.625Z,3.39
2023-01-30T15:21:42.932Z,3.46
2023-01-30T15:24:27.994Z,3.32
2023-01-30T15:26:57.396Z,3.22
2023-01-30T15:29:26.866Z,3.22
2023-01-30T15:32:01.031Z,3.29
2023-01-30T15:34:29.395Z,3.18
2023-01-30T15:36:55.723Z,3.24
2023-01-30T15:39:23.771Z,3.05
2023-01-30T15:41:52.652Z,3.20
2023-01-30T15:44:32.716Z,3.15
2023-01-30T15:47:02.041Z,3.22
2023-01-30T15:49:44.447Z,3.25
2023-01-30T15:52:13.970Z,3.23
2023-01-30T15:54:40.310Z,3.23
2023-01-30T15:57:06.810Z,3.12
2023-01-30T15:59:35.924Z,3.09
2023-01-30T16:02:04.063Z,2.94
2023-01-30T16:04:30.512Z,3.08
2023-01-30T16:06:56.868Z,3.01
2023-01-30T16:09:24.747Z,3.03
2023-01-30T16:11:51.273Z,2.92
2023-01-30T16:14:18.670Z,2.93
2023-01-30T16:16:51.668Z,2.85
2023-01-30T16:19:26.308Z,2.88
2023-01-30T16:21:53.108Z,2.75
2023-01-30T16:24:26.798Z,2.88
2023-01-30T16:26:56.251Z,2.84
2023-01-30T16:29:24.388Z,2.79
2023-01-30T16:31:52.464Z,2.70
2023-01-30T16:34:32.870Z,2.80
2023-01-30T16:37:02.427Z,2.74
2023-01-30T16:39:30.682Z,2.89
2023-01-30T16:41:57.811Z,2.88
2023-01-30T16:44:25.273Z,2.93
2023-01-30T16:46:51.595Z,2.90
2023-01-30T16:49:36.212Z,2.83
2023-01-30T16:52:04.907Z,2.85
2023-01-30T16:54:32.342Z,2.70
2023-01-30T16:57:00.522Z,2.92
2023-01-30T16:59:30.381Z,2.73
2023-01-30T17:01:58.916Z,2.58
2023-01-30T17:04:28.501Z,2.69
2023-01-30T17:06:56.687Z,2.78
2023-01-30T17:09:38.193Z,2.67
2023-01-30T17:12:23.360Z,2.68
2023-01-30T17:14:49.704Z,2.63
2023-01-30T17:17:16.373Z,2.66
2023-01-30T17:19:46.207Z,2.81
2023-01-30T17:22:19.200Z,3.09
2023-01-30T17:24:45.557Z,3.33
2023-01-30T17:27:11.917Z,3.43
2023-01-30T17:29:43.144Z,3.45
2023-01-30T17:32:11.443Z,3.55
2023-01-30T17:34:40.887Z,3.59
2023-01-30T17:37:13.333Z,3.50
2023-01-30T17:39:39.714Z,3.43
2023-01-30T17:42:09.160Z,3.41
2023-01-30T17:44:35.473Z,3.35
2023-01-30T17:47:01.829Z,3.36
2023-01-30T17:49:28.112Z,3.37
2023-01-30T17:51:55.511Z,3.38
2023-01-30T17:54:22.511Z,3.41
2023-01-30T17:56:51.938Z,3.43
2023-01-30T17:59:19.828Z,3.43
2023-01-30T18:01:47.582Z,3.37
2023-01-30T18:04:14.223Z,3.32
2023-01-30T18:06:42.128Z,3.24
2023-01-30T18:09:12.410Z,3.12
2023-01-30T18:11:38.736Z,3.12
2023-01-30T18:14:07.036Z,3.05
2023-01-30T18:16:33.810Z,3.01
2023-01-30T18:19:05.483Z,2.99
2023-01-30T18:21:32.812Z,2.94
2023-01-30T18:23:59.138Z,2.98
2023-01-30T18:26:25.800Z,2.92
2023-01-30T18:28:53.314Z,2.88
2023-01-30T18:31:23.704Z,2.91
2023-01-30T18:33:50.505Z,2.99
2023-01-30T18:36:17.931Z,3.04
2023-01-30T18:38:44.268Z,3.01
2023-01-30T18:41:18.369Z,2.97
2023-01-30T18:43:45.471Z,2.95
2023-01-30T18:46:13.175Z,2.88
2023-01-30T18:48:39.634Z,2.88
2023-01-30T18:51:16.404Z,2.85
2023-01-30T18:53:43.329Z,2.85
2023-01-30T18:56:11.403Z,2.89
2023-01-30T18:58:37.992Z,2.81
2023-01-30T19:01:17.606Z,2.67
2023-01-30T19:03:44.607Z,2.68
2023-01-30T19:06:13.047Z,2.69
2023-01-30T19:08:39.934Z,2.78
2023-01-30T19:11:26.888Z,2.84
2023-01-30T19:13:54.254Z,2.79
2023-01-30T19:16:24.767Z,2.70
2023-01-30T19:18:52.615Z,2.70
2023-01-30T19:21:19.317Z,2.72
2023-01-30T19:23:45.681Z,2.79
2023-01-30T19:26:12.393Z,2.84
2023-01-30T19:28:39.121Z,2.84
2023-01-30T19:31:06.294Z,2.88
2023-01-30T19:33:33.573Z,2.82
2023-01-30T19:36:13.521Z,2.83
2023-01-30T19:38:40.371Z,2.72
2023-01-30T19:41:10.779Z,2.63
2023-01-30T19:43:38.312Z,2.53
2023-01-30T19:46:05.778Z,2.52
2023-01-30T19:48:32.585Z,2.53
2023-01-30T19:51:02.714Z,2.50
2023-01-30T19:53:29.119Z,2.43
2023-01-30T19:55:55.500Z,2.50
2023-01-30T19:58:21.815Z,2.45
2023-01-30T20:00:50.138Z,2.51
2023-01-30T20:03:16.555Z,2.54
2023-01-30T20:05:43.265Z,2.61
2023-01-30T20:08:21.802Z,2.56
2023-01-30T20:11:00.770Z,2.49
2023-01-30T20:13:27.068Z,2.37
2023-01-30T20:15:53.651Z,2.32
2023-01-30T20:18:19.991Z,2.22
2023-01-30T20:20:46.914Z,2.16
2023-01-30T20:23:13.223Z,2.16
2023-01-30T20:25:39.566Z,2.13
2023-01-30T20:28:05.908Z,2.12
2023-01-30T20:30:32.209Z,2.12
2023-01-30T20:32:58.523Z,2.08
2023-01-30T20:35:24.853Z,2.13
2023-01-30T20:37:51.181Z,2.18
2023-01-30T20:40:18.808Z,2.12
2023-01-30T20:42:45.456Z,2.06
2023-01-30T20:45:11.755Z,2.06
2023-01-30T20:47:40.341Z,2.11
2023-01-30T20:50:06.811Z,2.04
2023-01-30T20:52:33.281Z,1.99
2023-01-30T20:54:59.598Z,1.96
2023-01-30T20:57:26.088Z,1.93
2023-01-30T20:59:52.410Z,1.83
2023-01-30T21:02:18.707Z,1.79
2023-01-30T21:04:45.038Z,1.78
2023-01-30T21:07:11.392Z,1.88
2023-01-30T21:09:38.262Z,1.87
2023-01-30T21:12:04.787Z,1.89
2023-01-30T21:14:31.190Z,1.95
2023-01-30T21:16:57.545Z,1.89
2023-01-30T21:19:23.937Z,1.89
2023-01-30T21:21:53.337Z,1.94
2023-01-30T21:24:27.261Z,1.98
2023-01-30T21:26:54.289Z,1.89
2023-01-30T21:29:22.249Z,1.85
2023-01-30T21:31:48.743Z,1.79
2023-01-30T21:34:15.542Z,1.82
2023-01-30T21:36:42.012Z,1.80
2023-01-30T21:39:31.603Z,1.77
2023-01-30T21:42:16.304Z,1.74
2023-01-30T21:44:42.617Z,1.75
2023-01-30T21:47:09.027Z,1.68
2023-01-30T21:49:36.772Z,1.64
2023-01-30T21:52:03.344Z,1.71
2023-01-30T21:54:29.710Z,1.65
2023-01-30T21:56:56.061Z,1.60
2023-01-30T21:59:22.367Z,1.56
2023-01-30T22:01:48.740Z,1.62
2023-01-30T22:04:15.090Z,1.62
2023-01-30T22:06:41.824Z,1.57
2023-01-30T22:09:08.623Z,1.53
2023-01-30T22:11:36.386Z,1.50
2023-01-30T22:14:03.258Z,1.50
2023-01-30T22:16:30.122Z,1.55
2023-01-30T22:18:58.680Z,1.55
2023-01-30T22:21:26.000Z,1.50
2023-01-30T22:23:53.010Z,1.46
2023-01-30T22:26:20.600Z,1.51
2023-01-30T22:28:47.199Z,1.47
2023-01-30T22:31:15.102Z,1.45
2023-01-30T22:33:45.149Z,1.42
2023-01-30T22:36:11.808Z,1.40
2023-01-30T22:38:41.748Z,1.39
2023-01-30T22:41:11.011Z,1.34
2023-01-30T22:43:37.429Z,1.33
2023-01-30T22:46:05.343Z,1.28
2023-01-30T22:48:31.753Z,1.30
2023-01-30T22:51:02.568Z,1.21
2023-01-30T22:53:36.149Z,1.17
2023-01-30T22:56:03.369Z,1.22
2023-01-30T22:58:29.773Z,1.22
2023-01-30T23:01:02.888Z,1.20
2023-01-30T23:03:29.288Z,1.24
2023-01-30T23:05:57.685Z,1.22
2023-01-30T23:08:25.708Z,1.22
2023-01-30T23:10:53.237Z,1.16
2023-01-30T23:13:19.664Z,1.18
2023-01-30T23:15:46.870Z,1.17
2023-01-30T23:18:35.456Z,1.09
2023-01-30T23:21:01.920Z,1.08
2023-01-30T23:23:28.298Z,1.03
2023-01-30T23:25:54.686Z,1.05
2023-01-30T23:28:21.050Z,1.14
2023-01-30T23:30:47.472Z,1.15
2023-01-30T23:33:13.793Z,1.13
2023-01-30T23:35:40.249Z,1.07
2023-01-30T23:38:15.482Z,1.10
2023-01-30T23:40:50.936Z,1.09
2023-01-30T23:43:17.457Z,1.10
2023-01-30T23:45:43.859Z,1.06
2023-01-30T23:48:10.342Z,1.03
2023-01-30T23:50:40.062Z,1.14
2023-01-30T23:53:07.446Z,1.17
2023-01-30T23:55:33.768Z,1.20
2023-01-30T23:58:00.214Z,1.23
